sensor_id;sensor_type;location;lat;lon;timestamp;temperature;humidity
15143;DHT22;7672;50.834;6.286;2023-08-01T00:00:12;20.20;99.90
15143;DHT22;7672;50.834;6.286;2023-08-01T00:02:39;20.20;99.90
15143;DHT22;7672;50.834;6.286;2023-08-01T00:05:09;20.20;99.90
15143;DHT22;7672;50.834;6.286;2023-08-01T00:07:36;20.10;99.90
15143;DHT22;7672;50.834;6.286;2023-08-01T00:10:04;20.40;99.90
15143;DHT22;7672;50.834;6.286;2023-08-01T00:12:32;20.20;99.90
15143;DHT22;7672;50.834;6.286;2023-08-01T00:14:59;20.30;99.90
15143;DHT22;7672;50.834;6.286;2023-08-01T00:17:26;20.20;99.90
15143;DHT22;7672;50.834;6.286;2023-08-01T00:19:53;20.10;99.90
15143;DHT22;7672;50.834;6.286;2023-08-01T00:22:22;20.30;99.90
15143;DHT22;7672;50.834;6.286;2023-08-01T00:24:49;20.30;99.90
15143;DHT22;7672;50.834;6.286;2023-08-01T00:27:16;20.20;99.90
15143;DHT22;7672;50.834;6.286;2023-08-01T00:29:43;20.30;99.90
15143;DHT22;7672;50.834;6.286;2023-08-01T00:32:10;20.50;99.90
15143;DHT22;7672;50.834;6.286;2023-08-01T00:34:37;20.30;99.90
15143;DHT22;7672;50.834;6.286;2023-08-01T00:37:05;20.30;99.90
15143;DHT22;7672;50.834;6.286;2023-08-01T00:39:32;20.30;99.90
15143;DHT22;7672;50.834;6.286;2023-08-01T00:41:59;20.30;99.90
15143;DHT22;7672;50.834;6.286;2023-08-01T00:44:26;20.30;99.90
15143;DHT22;7672;50.834;6.286;2023-08-01T00:46:54;20.30;99.90
15143;DHT22;7672;50.834;6.286;2023-08-01T00:49:21;20.30;99.90
15143;DHT22;7672;50.834;6.286;2023-08-01T00:51:48;20.20;99.90
15143;DHT22;7672;50.834;6.286;2023-08-01T00:54:16;20.30;99.90
15143;DHT22;7672;50.834;6.286;2023-08-01T00:56:44;20.30;99.90
15143;DHT22;7672;50.834;6.286;2023-08-01T00:59:12;20.30;99.90
15143;DHT22;7672;50.834;6.286;2023-08-01T01:01:39;20.10;99.90
15143;DHT22;7672;50.834;6.286;2023-08-01T01:04:08;20.30;99.90
15143;DHT22;7672;50.834;6.286;2023-08-01T01:06:48;20.10;99.90
15143;DHT22;7672;50.834;6.286;2023-08-01T01:09:20;20.10;99.90
15143;DHT22;7672;50.834;6.286;2023-08-01T01:11:48;20.10;99.90
15143;DHT22;7672;50.834;6.286;2023-08-01T01:14:15;20.00;99.90
15143;DHT22;7672;50.834;6.286;2023-08-01T01:16:42;20.10;99.90
15143;DHT22;7672;50.834;6.286;2023-08-01T01:19:09;20.00;99.90
15143;DHT22;7672;50.834;6.286;2023-08-01T01:21:38;20.00;99.90
15143;DHT22;7672;50.834;6.286;2023-08-01T01:24:08;19.90;99.90
15143;DHT22;7672;50.834;6.286;2023-08-01T01:26:37;19.90;99.90
15143;DHT22;7672;50.834;6.286;2023-08-01T01:29:05;20.10;99.90
15143;DHT22;7672;50.834;6.286;2023-08-01T01:31:36;19.90;99.90
15143;DHT22;7672;50.834;6.286;2023-08-01T01:34:04;19.80;99.90
15143;DHT22;7672;50.834;6.286;2023-08-01T01:36:31;19.90;99.90
15143;DHT22;7672;50.834;6.286;2023-08-01T01:38:58;19.60;99.90
15143;DHT22;7672;50.834;6.286;2023-08-01T01:41:25;19.70;99.90
15143;DHT22;7672;50.834;6.286;2023-08-01T01:43:52;19.80;99.90
15143;DHT22;7672;50.834;6.286;2023-08-01T01:46:19;19.70;99.90
15143;DHT22;7672;50.834;6.286;2023-08-01T01:48:47;19.60;99.90
15143;DHT22;7672;50.834;6.286;2023-08-01T01:51:14;20.20;99.90
15143;DHT22;7672;50.834;6.286;2023-08-01T01:53:41;19.70;99.90
15143;DHT22;7672;50.834;6.286;2023-08-01T01:56:09;20.00;99.90
15143;DHT22;7672;50.834;6.286;2023-08-01T01:58:36;19.50;99.90
15143;DHT22;7672;50.834;6.286;2023-08-01T02:01:03;19.50;99.90
15143;DHT22;7672;50.834;6.286;2023-08-01T02:03:31;19.40;99.90
15143;DHT22;7672;50.834;6.286;2023-08-01T02:05:58;19.40;99.90
15143;DHT22;7672;50.834;6.286;2023-08-01T02:08:25;19.30;99.90
15143;DHT22;7672;50.834;6.286;2023-08-01T02:10:52;19.40;99.90
15143;DHT22;7672;50.834;6.286;2023-08-01T02:13:19;19.60;99.90
15143;DHT22;7672;50.834;6.286;2023-08-01T02:15:46;19.60;99.90
15143;DHT22;7672;50.834;6.286;2023-08-01T02:18:14;19.10;99.90
15143;DHT22;7672;50.834;6.286;2023-08-01T02:20:41;19.40;99.90
15143;DHT22;7672;50.834;6.286;2023-08-01T02:23:08;19.20;99.90
15143;DHT22;7672;50.834;6.286;2023-08-01T02:25:41;19.20;99.90
15143;DHT22;7672;50.834;6.286;2023-08-01T02:28:09;19.10;99.90
15143;DHT22;7672;50.834;6.286;2023-08-01T02:30:36;19.00;99.90
15143;DHT22;7672;50.834;6.286;2023-08-01T02:33:03;19.40;99.90
15143;DHT22;7672;50.834;6.286;2023-08-01T02:35:30;19.10;99.90
15143;DHT22;7672;50.834;6.286;2023-08-01T02:37:59;19.00;99.90
15143;DHT22;7672;50.834;6.286;2023-08-01T02:40:26;19.00;99.90
15143;DHT22;7672;50.834;6.286;2023-08-01T02:42:53;19.00;99.90
15143;DHT22;7672;50.834;6.286;2023-08-01T02:45:20;19.00;99.90
15143;DHT22;7672;50.834;6.286;2023-08-01T02:47:48;19.00;99.90
15143;DHT22;7672;50.834;6.286;2023-08-01T02:50:15;19.00;99.90
15143;DHT22;7672;50.834;6.286;2023-08-01T02:52:43;18.90;99.90
15143;DHT22;7672;50.834;6.286;2023-08-01T02:55:10;18.90;99.90
15143;DHT22;7672;50.834;6.286;2023-08-01T02:57:37;18.90;99.90
15143;DHT22;7672;50.834;6.286;2023-08-01T03:00:05;18.90;99.90
15143;DHT22;7672;50.834;6.286;2023-08-01T03:02:38;18.90;99.90
15143;DHT22;7672;50.834;6.286;2023-08-01T03:05:07;19.00;99.90
15143;DHT22;7672;50.834;6.286;2023-08-01T03:07:34;18.80;99.90
15143;DHT22;7672;50.834;6.286;2023-08-01T03:10:02;18.60;99.90
15143;DHT22;7672;50.834;6.286;2023-08-01T03:12:30;18.80;99.90
15143;DHT22;7672;50.834;6.286;2023-08-01T03:14:57;18.80;99.90
15143;DHT22;7672;50.834;6.286;2023-08-01T03:17:25;18.60;99.90
15143;DHT22;7672;50.834;6.286;2023-08-01T03:19:52;18.70;99.90
15143;DHT22;7672;50.834;6.286;2023-08-01T03:22:19;19.10;99.90
15143;DHT22;7672;50.834;6.286;2023-08-01T03:24:46;18.70;99.90
15143;DHT22;7672;50.834;6.286;2023-08-01T03:27:13;18.70;99.90
15143;DHT22;7672;50.834;6.286;2023-08-01T03:29:40;18.70;99.90
15143;DHT22;7672;50.834;6.286;2023-08-01T03:32:07;18.60;99.90
15143;DHT22;7672;50.834;6.286;2023-08-01T03:34:34;18.60;99.90
15143;DHT22;7672;50.834;6.286;2023-08-01T03:37:04;18.60;99.90
15143;DHT22;7672;50.834;6.286;2023-08-01T03:39:31;18.50;99.90
15143;DHT22;7672;50.834;6.286;2023-08-01T03:41:58;18.50;99.90
15143;DHT22;7672;50.834;6.286;2023-08-01T03:44:25;18.60;99.90
15143;DHT22;7672;50.834;6.286;2023-08-01T03:46:52;18.50;99.90
15143;DHT22;7672;50.834;6.286;2023-08-01T03:49:20;18.50;99.90
15143;DHT22;7672;50.834;6.286;2023-08-01T03:51:47;18.60;99.90
15143;DHT22;7672;50.834;6.286;2023-08-01T03:54:14;18.50;99.90
15143;DHT22;7672;50.834;6.286;2023-08-01T03:56:41;18.50;99.90
15143;DHT22;7672;50.834;6.286;2023-08-01T03:59:15;18.50;99.90
15143;DHT22;7672;50.834;6.286;2023-08-01T04:01:42;18.50;99.90
15143;DHT22;7672;50.834;6.286;2023-08-01T04:04:10;18.50;99.90
15143;DHT22;7672;50.834;6.286;2023-08-01T04:06:37;18.60;99.90
15143;DHT22;7672;50.834;6.286;2023-08-01T04:09:05;18.50;99.90
15143;DHT22;7672;50.834;6.286;2023-08-01T04:11:33;18.50;99.90
15143;DHT22;7672;50.834;6.286;2023-08-01T04:14:00;18.90;99.90
15143;DHT22;7672;50.834;6.286;2023-08-01T04:16:28;18.40;99.90
15143;DHT22;7672;50.834;6.286;2023-08-01T04:18:55;18.60;99.90
15143;DHT22;7672;50.834;6.286;2023-08-01T04:21:22;18.50;99.90
15143;DHT22;7672;50.834;6.286;2023-08-01T04:23:49;18.40;99.90
15143;DHT22;7672;50.834;6.286;2023-08-01T04:26:16;18.40;99.90
15143;DHT22;7672;50.834;6.286;2023-08-01T04:28:45;18.40;99.90
15143;DHT22;7672;50.834;6.286;2023-08-01T04:31:12;18.40;99.90
15143;DHT22;7672;50.834;6.286;2023-08-01T04:33:40;18.30;99.90
15143;DHT22;7672;50.834;6.286;2023-08-01T04:36:07;18.30;99.90
15143;DHT22;7672;50.834;6.286;2023-08-01T04:38:34;18.30;99.90
15143;DHT22;7672;50.834;6.286;2023-08-01T04:41:01;18.30;99.90
15143;DHT22;7672;50.834;6.286;2023-08-01T04:43:29;18.20;99.90
15143;DHT22;7672;50.834;6.286;2023-08-01T04:45:56;18.30;99.90
15143;DHT22;7672;50.834;6.286;2023-08-01T04:48:23;18.30;99.90
15143;DHT22;7672;50.834;6.286;2023-08-01T04:50:50;18.30;99.90
15143;DHT22;7672;50.834;6.286;2023-08-01T04:53:17;18.30;99.90
15143;DHT22;7672;50.834;6.286;2023-08-01T04:55:44;18.20;99.90
15143;DHT22;7672;50.834;6.286;2023-08-01T04:58:11;18.20;99.90
15143;DHT22;7672;50.834;6.286;2023-08-01T05:00:41;18.20;99.90
15143;DHT22;7672;50.834;6.286;2023-08-01T05:03:09;18.20;99.90
15143;DHT22;7672;50.834;6.286;2023-08-01T05:05:36;18.20;99.90
15143;DHT22;7672;50.834;6.286;2023-08-01T05:08:03;18.20;99.90
15143;DHT22;7672;50.834;6.286;2023-08-01T05:10:30;18.20;99.90
15143;DHT22;7672;50.834;6.286;2023-08-01T05:12:57;18.20;99.90
15143;DHT22;7672;50.834;6.286;2023-08-01T05:15:24;18.20;99.90
15143;DHT22;7672;50.834;6.286;2023-08-01T05:17:52;18.20;99.90
15143;DHT22;7672;50.834;6.286;2023-08-01T05:20:20;18.30;99.90
15143;DHT22;7672;50.834;6.286;2023-08-01T05:22:47;18.30;99.90
15143;DHT22;7672;50.834;6.286;2023-08-01T05:25:14;18.30;99.90
15143;DHT22;7672;50.834;6.286;2023-08-01T05:27:41;18.30;99.90
15143;DHT22;7672;50.834;6.286;2023-08-01T05:30:09;18.40;99.90
15143;DHT22;7672;50.834;6.286;2023-08-01T05:32:36;18.40;99.90
15143;DHT22;7672;50.834;6.286;2023-08-01T05:35:04;18.40;99.90
15143;DHT22;7672;50.834;6.286;2023-08-01T05:37:31;18.40;99.90
15143;DHT22;7672;50.834;6.286;2023-08-01T05:39:58;18.50;99.90
15143;DHT22;7672;50.834;6.286;2023-08-01T05:42:26;18.50;99.90
15143;DHT22;7672;50.834;6.286;2023-08-01T05:44:53;18.70;99.90
15143;DHT22;7672;50.834;6.286;2023-08-01T05:47:20;18.80;99.90
15143;DHT22;7672;50.834;6.286;2023-08-01T05:49:47;18.70;99.90
15143;DHT22;7672;50.834;6.286;2023-08-01T05:52:14;18.80;99.90
15143;DHT22;7672;50.834;6.286;2023-08-01T05:54:41;18.90;99.90
15143;DHT22;7672;50.834;6.286;2023-08-01T05:57:08;19.00;99.90
15143;DHT22;7672;50.834;6.286;2023-08-01T05:59:36;19.10;99.90
15143;DHT22;7672;50.834;6.286;2023-08-01T06:02:03;19.20;99.90
15143;DHT22;7672;50.834;6.286;2023-08-01T06:04:31;19.30;99.90
15143;DHT22;7672;50.834;6.286;2023-08-01T06:06:58;19.40;99.90
15143;DHT22;7672;50.834;6.286;2023-08-01T06:09:25;19.50;99.90
15143;DHT22;7672;50.834;6.286;2023-08-01T06:11:52;19.60;99.90
15143;DHT22;7672;50.834;6.286;2023-08-01T06:14:19;19.80;99.90
15143;DHT22;7672;50.834;6.286;2023-08-01T06:16:47;19.90;99.90
15143;DHT22;7672;50.834;6.286;2023-08-01T06:19:14;20.00;99.90
15143;DHT22;7672;50.834;6.286;2023-08-01T06:21:41;20.20;99.90
15143;DHT22;7672;50.834;6.286;2023-08-01T06:24:08;20.30;99.90
15143;DHT22;7672;50.834;6.286;2023-08-01T06:26:35;20.50;99.90
15143;DHT22;7672;50.834;6.286;2023-08-01T06:29:02;20.60;99.90
15143;DHT22;7672;50.834;6.286;2023-08-01T06:31:29;20.70;99.90
15143;DHT22;7672;50.834;6.286;2023-08-01T06:33:56;20.80;99.90
15143;DHT22;7672;50.834;6.286;2023-08-01T06:36:23;20.70;99.90
15143;DHT22;7672;50.834;6.286;2023-08-01T06:38:50;20.90;99.90
15143;DHT22;7672;50.834;6.286;2023-08-01T06:41:17;20.70;99.90
15143;DHT22;7672;50.834;6.286;2023-08-01T06:43:44;20.70;99.90
15143;DHT22;7672;50.834;6.286;2023-08-01T06:46:11;20.70;99.90
15143;DHT22;7672;50.834;6.286;2023-08-01T06:48:38;20.60;99.90
15143;DHT22;7672;50.834;6.286;2023-08-01T06:51:05;20.50;99.90
15143;DHT22;7672;50.834;6.286;2023-08-01T06:53:32;20.50;99.90
15143;DHT22;7672;50.834;6.286;2023-08-01T06:55:59;20.60;99.90
15143;DHT22;7672;50.834;6.286;2023-08-01T06:58:26;20.50;99.90
15143;DHT22;7672;50.834;6.286;2023-08-01T07:00:53;20.60;99.90
15143;DHT22;7672;50.834;6.286;2023-08-01T07:03:20;20.50;99.90
15143;DHT22;7672;50.834;6.286;2023-08-01T07:05:47;20.50;99.90
15143;DHT22;7672;50.834;6.286;2023-08-01T07:08:16;20.30;99.90
15143;DHT22;7672;50.834;6.286;2023-08-01T07:10:43;20.50;99.90
15143;DHT22;7672;50.834;6.286;2023-08-01T07:13:12;20.50;99.90
15143;DHT22;7672;50.834;6.286;2023-08-01T07:15:39;20.40;99.90
15143;DHT22;7672;50.834;6.286;2023-08-01T07:18:06;20.40;99.90
15143;DHT22;7672;50.834;6.286;2023-08-01T07:20:33;20.40;99.90
15143;DHT22;7672;50.834;6.286;2023-08-01T07:23:00;20.50;99.90
15143;DHT22;7672;50.834;6.286;2023-08-01T07:25:27;20.60;99.90
15143;DHT22;7672;50.834;6.286;2023-08-01T07:27:54;20.70;99.90
15143;DHT22;7672;50.834;6.286;2023-08-01T07:30:21;21.00;99.90
15143;DHT22;7672;50.834;6.286;2023-08-01T07:32:49;21.50;99.90
15143;DHT22;7672;50.834;6.286;2023-08-01T07:35:16;21.70;99.90
15143;DHT22;7672;50.834;6.286;2023-08-01T07:37:43;22.30;99.90
15143;DHT22;7672;50.834;6.286;2023-08-01T07:40:10;22.80;99.90
15143;DHT22;7672;50.834;6.286;2023-08-01T07:42:37;23.20;99.90
15143;DHT22;7672;50.834;6.286;2023-08-01T07:45:05;23.60;99.90
15143;DHT22;7672;50.834;6.286;2023-08-01T07:47:33;23.80;99.90
15143;DHT22;7672;50.834;6.286;2023-08-01T07:50:01;23.90;99.90
15143;DHT22;7672;50.834;6.286;2023-08-01T07:52:28;24.00;99.90
15143;DHT22;7672;50.834;6.286;2023-08-01T07:54:55;24.10;99.90
15143;DHT22;7672;50.834;6.286;2023-08-01T07:57:24;24.20;99.90
15143;DHT22;7672;50.834;6.286;2023-08-01T07:59:51;24.10;99.90
15143;DHT22;7672;50.834;6.286;2023-08-01T08:02:18;24.10;99.90
15143;DHT22;7672;50.834;6.286;2023-08-01T08:04:45;24.20;99.90
15143;DHT22;7672;50.834;6.286;2023-08-01T08:07:12;24.60;99.90
15143;DHT22;7672;50.834;6.286;2023-08-01T08:09:39;25.00;99.90
15143;DHT22;7672;50.834;6.286;2023-08-01T08:12:06;25.50;99.90
15143;DHT22;7672;50.834;6.286;2023-08-01T08:14:34;25.60;99.90
15143;DHT22;7672;50.834;6.286;2023-08-01T08:17:01;26.30;99.90
15143;DHT22;7672;50.834;6.286;2023-08-01T08:19:28;26.30;99.90
15143;DHT22;7672;50.834;6.286;2023-08-01T08:21:55;26.50;99.90
15143;DHT22;7672;50.834;6.286;2023-08-01T08:24:22;26.50;99.90
15143;DHT22;7672;50.834;6.286;2023-08-01T08:26:49;26.50;99.90
15143;DHT22;7672;50.834;6.286;2023-08-01T08:29:16;26.40;99.90
15143;DHT22;7672;50.834;6.286;2023-08-01T08:31:43;26.30;99.90
15143;DHT22;7672;50.834;6.286;2023-08-01T08:34:11;26.20;99.90
15143;DHT22;7672;50.834;6.286;2023-08-01T08:36:38;26.20;99.90
15143;DHT22;7672;50.834;6.286;2023-08-01T08:39:05;26.50;99.90
15143;DHT22;7672;50.834;6.286;2023-08-01T08:41:39;26.90;99.90
15143;DHT22;7672;50.834;6.286;2023-08-01T08:44:18;27.30;99.90
15143;DHT22;7672;50.834;6.286;2023-08-01T08:46:54;27.80;99.90
15143;DHT22;7672;50.834;6.286;2023-08-01T08:49:27;28.20;99.90
15143;DHT22;7672;50.834;6.286;2023-08-01T08:51:55;28.60;99.90
15143;DHT22;7672;50.834;6.286;2023-08-01T08:54:23;29.00;99.90
15143;DHT22;7672;50.834;6.286;2023-08-01T08:56:51;29.40;99.90
15143;DHT22;7672;50.834;6.286;2023-08-01T08:59:18;29.70;99.90
15143;DHT22;7672;50.834;6.286;2023-08-01T09:01:47;29.70;99.90
15143;DHT22;7672;50.834;6.286;2023-08-01T09:04:15;30.00;99.90
15143;DHT22;7672;50.834;6.286;2023-08-01T09:06:49;30.20;99.90
15143;DHT22;7672;50.834;6.286;2023-08-01T09:09:18;30.40;99.90
15143;DHT22;7672;50.834;6.286;2023-08-01T09:11:50;30.80;99.90
15143;DHT22;7672;50.834;6.286;2023-08-01T09:14:19;31.10;99.90
15143;DHT22;7672;50.834;6.286;2023-08-01T09:16:47;31.30;99.90
15143;DHT22;7672;50.834;6.286;2023-08-01T09:19:19;31.30;99.90
15143;DHT22;7672;50.834;6.286;2023-08-01T09:21:48;31.30;99.90
15143;DHT22;7672;50.834;6.286;2023-08-01T09:24:19;31.20;99.90
15143;DHT22;7672;50.834;6.286;2023-08-01T09:26:48;31.00;99.90
15143;DHT22;7672;50.834;6.286;2023-08-01T09:29:16;30.90;99.90
15143;DHT22;7672;50.834;6.286;2023-08-01T09:31:44;30.80;99.90
15143;DHT22;7672;50.834;6.286;2023-08-01T09:34:20;30.80;99.90
15143;DHT22;7672;50.834;6.286;2023-08-01T09:36:57;30.90;99.90
15143;DHT22;7672;50.834;6.286;2023-08-01T09:39:25;31.20;99.90
15143;DHT22;7672;50.834;6.286;2023-08-01T09:42:00;31.20;99.90
15143;DHT22;7672;50.834;6.286;2023-08-01T09:44:29;31.30;99.90
15143;DHT22;7672;50.834;6.286;2023-08-01T09:47:01;31.20;99.90
15143;DHT22;7672;50.834;6.286;2023-08-01T09:49:31;30.90;99.90
15143;DHT22;7672;50.834;6.286;2023-08-01T09:51:58;30.80;99.90
15143;DHT22;7672;50.834;6.286;2023-08-01T09:54:26;30.60;99.90
15143;DHT22;7672;50.834;6.286;2023-08-01T09:56:54;30.60;99.90
15143;DHT22;7672;50.834;6.286;2023-08-01T09:59:24;30.70;99.90
15143;DHT22;7672;50.834;6.286;2023-08-01T10:01:54;30.90;99.90
15143;DHT22;7672;50.834;6.286;2023-08-01T10:04:29;30.80;99.90
15143;DHT22;7672;50.834;6.286;2023-08-01T10:06:59;31.00;99.90
15143;DHT22;7672;50.834;6.286;2023-08-01T10:09:33;30.90;99.90
15143;DHT22;7672;50.834;6.286;2023-08-01T10:12:02;31.00;99.90
15143;DHT22;7672;50.834;6.286;2023-08-01T10:14:32;31.20;99.90
15143;DHT22;7672;50.834;6.286;2023-08-01T10:17:00;31.30;99.90
15143;DHT22;7672;50.834;6.286;2023-08-01T10:19:31;31.50;99.90
15143;DHT22;7672;50.834;6.286;2023-08-01T10:22:00;31.80;99.90
15143;DHT22;7672;50.834;6.286;2023-08-01T10:24:28;32.00;99.90
15143;DHT22;7672;50.834;6.286;2023-08-01T10:26:56;32.10;99.90
15143;DHT22;7672;50.834;6.286;2023-08-01T10:29:36;32.20;99.90
15143;DHT22;7672;50.834;6.286;2023-08-01T10:32:06;32.10;99.90
15143;DHT22;7672;50.834;6.286;2023-08-01T10:34:35;32.00;99.90
15143;DHT22;7672;50.834;6.286;2023-08-01T10:37:02;31.90;99.90
15143;DHT22;7672;50.834;6.286;2023-08-01T10:39:29;31.70;99.90
15143;DHT22;7672;50.834;6.286;2023-08-01T10:42:01;31.70;99.90
15143;DHT22;7672;50.834;6.286;2023-08-01T10:44:30;31.70;99.90
15143;DHT22;7672;50.834;6.286;2023-08-01T10:47:04;31.80;99.90
15143;DHT22;7672;50.834;6.286;2023-08-01T10:49:44;31.90;99.90
15143;DHT22;7672;50.834;6.286;2023-08-01T10:52:25;31.90;99.90
15143;DHT22;7672;50.834;6.286;2023-08-01T10:55:02;31.80;99.90
15143;DHT22;7672;50.834;6.286;2023-08-01T10:57:34;31.60;99.90
15143;DHT22;7672;50.834;6.286;2023-08-01T11:00:03;31.50;99.90
15143;DHT22;7672;50.834;6.286;2023-08-01T11:02:36;31.40;99.90
15143;DHT22;7672;50.834;6.286;2023-08-01T11:05:06;31.40;99.90
15143;DHT22;7672;50.834;6.286;2023-08-01T11:07:34;31.30;99.90
15143;DHT22;7672;50.834;6.286;2023-08-01T11:10:12;31.00;99.90
15143;DHT22;7672;50.834;6.286;2023-08-01T11:12:42;30.80;99.90
15143;DHT22;7672;50.834;6.286;2023-08-01T11:15:12;30.70;99.90
15143;DHT22;7672;50.834;6.286;2023-08-01T11:17:42;30.70;99.90
15143;DHT22;7672;50.834;6.286;2023-08-01T11:20:14;30.70;99.90
15143;DHT22;7672;50.834;6.286;2023-08-01T11:23:00;30.80;99.90
15143;DHT22;7672;50.834;6.286;2023-08-01T11:25:43;30.90;99.90
15143;DHT22;7672;50.834;6.286;2023-08-01T11:28:15;31.00;99.90
15143;DHT22;7672;50.834;6.286;2023-08-01T11:30:43;31.20;99.90
15143;DHT22;7672;50.834;6.286;2023-08-01T11:33:22;31.20;99.90
15143;DHT22;7672;50.834;6.286;2023-08-01T11:35:51;31.20;99.90
15143;DHT22;7672;50.834;6.286;2023-08-01T11:38:23;31.10;99.90
15143;DHT22;7672;50.834;6.286;2023-08-01T11:40:52;31.10;99.90
15143;DHT22;7672;50.834;6.286;2023-08-01T11:43:19;31.00;99.90
15143;DHT22;7672;50.834;6.286;2023-08-01T11:45:56;31.00;99.90
15143;DHT22;7672;50.834;6.286;2023-08-01T11:48:26;30.90;99.90
15143;DHT22;7672;50.834;6.286;2023-08-01T11:50:58;30.80;99.90
15143;DHT22;7672;50.834;6.286;2023-08-01T11:53:26;30.50;99.90
15143;DHT22;7672;50.834;6.286;2023-08-01T11:55:55;30.20;99.90
15143;DHT22;7672;50.834;6.286;2023-08-01T11:58:30;30.00;99.90
15143;DHT22;7672;50.834;6.286;2023-08-01T12:01:03;29.70;99.90
15143;DHT22;7672;50.834;6.286;2023-08-01T12:03:49;29.50;99.90
15143;DHT22;7672;50.834;6.286;2023-08-01T12:06:20;29.30;99.90
15143;DHT22;7672;50.834;6.286;2023-08-01T12:08:52;29.10;99.90
15143;DHT22;7672;50.834;6.286;2023-08-01T12:11:27;29.00;99.90
15143;DHT22;7672;50.834;6.286;2023-08-01T12:14:13;28.80;99.90
15143;DHT22;7672;50.834;6.286;2023-08-01T12:16:44;28.60;99.90
15143;DHT22;7672;50.834;6.286;2023-08-01T12:19:20;28.50;99.90
15143;DHT22;7672;50.834;6.286;2023-08-01T12:21:48;28.40;99.90
15143;DHT22;7672;50.834;6.286;2023-08-01T12:24:16;28.20;99.90
15143;DHT22;7672;50.834;6.286;2023-08-01T12:26:43;28.30;99.90
15143;DHT22;7672;50.834;6.286;2023-08-01T12:29:11;28.40;99.90
15143;DHT22;7672;50.834;6.286;2023-08-01T12:31:38;28.50;99.90
15143;DHT22;7672;50.834;6.286;2023-08-01T12:34:06;28.50;99.90
15143;DHT22;7672;50.834;6.286;2023-08-01T12:36:33;28.50;99.90
15143;DHT22;7672;50.834;6.286;2023-08-01T12:39:00;28.50;99.90
15143;DHT22;7672;50.834;6.286;2023-08-01T12:41:27;28.60;99.90
15143;DHT22;7672;50.834;6.286;2023-08-01T12:43:54;28.60;99.90
15143;DHT22;7672;50.834;6.286;2023-08-01T12:46:21;28.70;99.90
15143;DHT22;7672;50.834;6.286;2023-08-01T12:48:48;28.80;99.90
15143;DHT22;7672;50.834;6.286;2023-08-01T12:51:16;28.90;99.90
15143;DHT22;7672;50.834;6.286;2023-08-01T12:53:43;28.90;99.90
15143;DHT22;7672;50.834;6.286;2023-08-01T12:56:12;29.30;99.90
15143;DHT22;7672;50.834;6.286;2023-08-01T12:58:39;29.00;99.90
15143;DHT22;7672;50.834;6.286;2023-08-01T13:01:07;29.00;99.90
15143;DHT22;7672;50.834;6.286;2023-08-01T13:03:34;29.20;99.90
15143;DHT22;7672;50.834;6.286;2023-08-01T13:06:01;29.20;99.90
15143;DHT22;7672;50.834;6.286;2023-08-01T13:08:29;29.20;99.90
15143;DHT22;7672;50.834;6.286;2023-08-01T13:10:56;29.20;99.90
15143;DHT22;7672;50.834;6.286;2023-08-01T13:13:26;29.10;99.90
15143;DHT22;7672;50.834;6.286;2023-08-01T13:15:56;29.20;99.90
15143;DHT22;7672;50.834;6.286;2023-08-01T13:18:24;29.10;99.90
15143;DHT22;7672;50.834;6.286;2023-08-01T13:20:51;29.10;99.90
15143;DHT22;7672;50.834;6.286;2023-08-01T13:23:18;28.90;99.90
15143;DHT22;7672;50.834;6.286;2023-08-01T13:25:45;28.70;99.90
15143;DHT22;7672;50.834;6.286;2023-08-01T13:28:14;28.50;99.90
15143;DHT22;7672;50.834;6.286;2023-08-01T13:30:41;28.30;99.90
15143;DHT22;7672;50.834;6.286;2023-08-01T13:33:08;28.00;99.90
15143;DHT22;7672;50.834;6.286;2023-08-01T13:35:35;27.80;99.90
15143;DHT22;7672;50.834;6.286;2023-08-01T13:38:02;27.50;99.90
15143;DHT22;7672;50.834;6.286;2023-08-01T13:40:31;27.30;99.90
15143;DHT22;7672;50.834;6.286;2023-08-01T13:42:58;27.00;99.90
15143;DHT22;7672;50.834;6.286;2023-08-01T13:45:25;26.70;99.90
15143;DHT22;7672;50.834;6.286;2023-08-01T13:47:52;26.50;99.90
15143;DHT22;7672;50.834;6.286;2023-08-01T13:50:19;26.20;99.90
15143;DHT22;7672;50.834;6.286;2023-08-01T13:52:46;26.00;99.90
15143;DHT22;7672;50.834;6.286;2023-08-01T13:55:13;25.80;99.90
15143;DHT22;7672;50.834;6.286;2023-08-01T13:57:44;25.70;99.90
15143;DHT22;7672;50.834;6.286;2023-08-01T14:00:11;25.50;99.90
15143;DHT22;7672;50.834;6.286;2023-08-01T14:02:42;25.40;99.90
15143;DHT22;7672;50.834;6.286;2023-08-01T14:05:10;25.20;99.90
15143;DHT22;7672;50.834;6.286;2023-08-01T14:07:37;25.20;99.90
15143;DHT22;7672;50.834;6.286;2023-08-01T14:10:09;25.10;99.90
15143;DHT22;7672;50.834;6.286;2023-08-01T14:12:37;25.10;99.90
15143;DHT22;7672;50.834;6.286;2023-08-01T14:15:04;25.00;99.90
15143;DHT22;7672;50.834;6.286;2023-08-01T14:17:32;24.90;99.90
15143;DHT22;7672;50.834;6.286;2023-08-01T14:19:59;24.80;99.90
15143;DHT22;7672;50.834;6.286;2023-08-01T14:22:26;24.70;99.90
15143;DHT22;7672;50.834;6.286;2023-08-01T14:24:53;24.60;99.90
15143;DHT22;7672;50.834;6.286;2023-08-01T14:27:20;24.50;99.90
15143;DHT22;7672;50.834;6.286;2023-08-01T14:29:47;24.40;99.90
15143;DHT22;7672;50.834;6.286;2023-08-01T14:32:19;24.30;99.90
15143;DHT22;7672;50.834;6.286;2023-08-01T14:34:46;24.10;99.90
15143;DHT22;7672;50.834;6.286;2023-08-01T14:37:13;24.00;99.90
15143;DHT22;7672;50.834;6.286;2023-08-01T14:39:40;23.90;99.90
15143;DHT22;7672;50.834;6.286;2023-08-01T14:42:07;23.80;99.90
15143;DHT22;7672;50.834;6.286;2023-08-01T14:44:34;23.70;99.90
15143;DHT22;7672;50.834;6.286;2023-08-01T14:47:02;23.60;99.90
15143;DHT22;7672;50.834;6.286;2023-08-01T14:49:29;23.50;99.90
15143;DHT22;7672;50.834;6.286;2023-08-01T14:51:56;23.50;99.90
15143;DHT22;7672;50.834;6.286;2023-08-01T14:54:24;23.50;99.90
15143;DHT22;7672;50.834;6.286;2023-08-01T14:56:56;23.50;99.90
15143;DHT22;7672;50.834;6.286;2023-08-01T14:59:23;23.50;99.90
15143;DHT22;7672;50.834;6.286;2023-08-01T15:01:50;23.30;99.90
15143;DHT22;7672;50.834;6.286;2023-08-01T15:04:18;23.30;99.90
15143;DHT22;7672;50.834;6.286;2023-08-01T15:06:45;23.20;99.90
15143;DHT22;7672;50.834;6.286;2023-08-01T15:09:12;23.20;99.90
15143;DHT22;7672;50.834;6.286;2023-08-01T15:11:39;23.10;99.90
15143;DHT22;7672;50.834;6.286;2023-08-01T15:14:06;23.00;99.90
15143;DHT22;7672;50.834;6.286;2023-08-01T15:16:34;23.00;99.90
15143;DHT22;7672;50.834;6.286;2023-08-01T15:19:01;22.90;99.90
15143;DHT22;7672;50.834;6.286;2023-08-01T15:21:28;22.80;99.90
15143;DHT22;7672;50.834;6.286;2023-08-01T15:23:55;22.80;99.90
15143;DHT22;7672;50.834;6.286;2023-08-01T15:26:22;22.70;99.90
15143;DHT22;7672;50.834;6.286;2023-08-01T15:28:49;22.60;99.90
15143;DHT22;7672;50.834;6.286;2023-08-01T15:31:16;22.90;99.90
15143;DHT22;7672;50.834;6.286;2023-08-01T15:33:43;22.90;99.90
15143;DHT22;7672;50.834;6.286;2023-08-01T15:36:11;22.70;99.90
15143;DHT22;7672;50.834;6.286;2023-08-01T15:38:38;22.70;99.90
15143;DHT22;7672;50.834;6.286;2023-08-01T15:41:07;22.70;99.90
15143;DHT22;7672;50.834;6.286;2023-08-01T15:43:38;22.70;99.90
15143;DHT22;7672;50.834;6.286;2023-08-01T15:46:07;22.60;99.90
15143;DHT22;7672;50.834;6.286;2023-08-01T15:48:36;22.80;99.90
15143;DHT22;7672;50.834;6.286;2023-08-01T15:51:05;22.80;99.90